Time;durP1;ratioP1;P1;durP2;ratioP2;P2;SDS_P1;SDS_P2;PMS_P1;PMS_P2;Temp;Humidity;BMP_temperature;BMP_pressure;BME280_temperature;BME280_humidity;BME280_pressure;Samples;Min_cycle;Max_cycle;Signal;HPM_P1;HPM_P2
2021/09/09 00:00:48;;;;;;;9.98;8.57;;;;;;;14.09;72.39;100627.22;5059820;28;20033;-83
2021/09/09 00:03:14;;;;;;;14.60;8.65;;;;;;;14.05;72.41;100625.53;5059749;28;20032;-82
2021/09/09 00:05:39;;;;;;;16.73;8.65;;;;;;;14.02;72.45;100629.13;5059723;28;20044;-82
2021/09/09 00:08:05;;;;;;;13.85;9.23;;;;;;;14.01;72.55;100627.34;5060848;28;20452;-83
2021/09/09 00:10:32;;;;;;;12.73;9.10;;;;;;;13.98;72.44;100622.97;5059310;28;20040;-82
2021/09/09 00:12:58;;;;;;;14.85;9.00;;;;;;;13.97;72.33;100620.38;5043776;28;20033;-82
2021/09/09 00:15:23;;;;;;;13.25;8.77;;;;;;;13.95;72.70;100623.03;5060909;28;20025;-82
2021/09/09 00:17:50;;;;;;;11.27;8.10;;;;;;;13.93;72.85;100619.53;5060043;28;20056;-82
2021/09/09 00:20:15;;;;;;;10.50;7.90;;;;;;;13.90;73.10;100622.25;5059192;28;20482;-82
2021/09/09 00:22:41;;;;;;;12.30;9.20;;;;;;;13.89;73.32;100620.50;5057586;28;20033;-82
2021/09/09 00:25:08;;;;;;;13.00;8.68;;;;;;;13.86;72.80;100615.25;5058013;28;20033;-83
2021/09/09 00:27:35;;;;;;;11.48;8.55;;;;;;;13.82;73.10;100613.56;5059187;28;20033;-83
2021/09/09 00:30:00;;;;;;;12.25;8.75;;;;;;;13.80;73.01;100610.06;5057454;28;20041;-83
2021/09/09 00:32:26;;;;;;;9.93;8.05;;;;;;;13.76;73.17;100617.19;5056291;28;20040;-84
2021/09/09 00:34:53;;;;;;;12.00;8.75;;;;;;;13.75;73.11;100611.91;5057288;28;20037;-83
2021/09/09 00:37:20;;;;;;;11.15;8.70;;;;;;;13.74;73.24;100612.81;5056703;28;20052;-83
2021/09/09 00:39:45;;;;;;;10.68;8.15;;;;;;;13.71;73.13;100611.09;5057978;28;20037;-83
2021/09/09 00:42:10;;;;;;;12.98;8.85;;;;;;;13.68;73.27;100612.94;5057643;28;20048;-83
2021/09/09 00:44:36;;;;;;;11.07;8.68;;;;;;;13.66;73.28;100609.44;5056743;28;20040;-83
2021/09/09 00:47:04;;;;;;;10.75;8.13;;;;;;;13.64;73.39;100600.63;5056247;28;20037;-83
2021/09/09 00:49:31;;;;;;;11.40;8.75;;;;;;;13.62;73.42;100607.72;5057386;28;20041;-83
2021/09/09 00:51:56;;;;;;;14.45;8.50;;;;;;;13.59;73.52;100606.88;5039571;28;20041;-84
2021/09/09 00:54:22;;;;;;;11.07;8.27;;;;;;;13.57;73.42;100602.50;5050987;28;20033;-83
2021/09/09 00:56:48;;;;;;;12.55;9.48;;;;;;;13.52;73.98;100604.38;5055643;28;20036;-83
2021/09/09 00:59:14;;;;;;;10.88;9.25;;;;;;;13.47;74.36;100609.75;5057265;28;20087;-83
2021/09/09 01:01:41;;;;;;;10.98;8.43;;;;;;;13.43;74.10;100600.09;5056984;28;20036;-83
2021/09/09 01:04:06;;;;;;;10.25;7.70;;;;;;;13.43;74.13;100602.75;5057060;28;20044;-82
2021/09/09 01:06:31;;;;;;;10.73;8.95;;;;;;;13.41;74.40;100604.53;5057209;28;20065;-82
2021/09/09 01:08:57;;;;;;;11.00;8.02;;;;;;;13.40;74.41;100608.09;5047478;28;20041;-82
2021/09/09 01:11:22;;;;;;;10.18;8.27;;;;;;;13.37;74.50;100602.84;5039539;28;20032;-82
2021/09/09 01:13:51;;;;;;;11.57;8.88;;;;;;;13.37;74.58;100602.84;5055653;28;20506;-82
2021/09/09 01:16:18;;;;;;;11.32;8.60;;;;;;;13.35;74.26;100599.34;5036805;28;20033;-82
2021/09/09 01:18:43;;;;;;;11.68;8.48;;;;;;;13.32;74.33;100604.69;5041822;28;20117;-82
2021/09/09 01:21:09;;;;;;;12.40;8.98;;;;;;;13.30;74.66;100598.53;5057890;28;20517;-83
2021/09/09 01:23:36;;;;;;;9.63;8.10;;;;;;;13.27;74.89;100603.91;5057045;28;20060;-83
2021/09/09 01:26:01;;;;;;;9.50;7.90;;;;;;;13.26;74.74;100607.44;5037964;28;20037;-83
2021/09/09 01:28:26;;;;;;;15.20;8.52;;;;;;;13.25;74.85;100603.88;5056387;28;20041;-83
2021/09/09 01:30:51;;;;;;;12.73;8.00;;;;;;;13.22;74.90;100603.94;5055426;28;20513;-83
2021/09/09 01:33:17;;;;;;;13.27;8.98;;;;;;;13.22;74.66;100600.41;5055701;28;20040;-83
2021/09/09 01:35:42;;;;;;;10.98;8.27;;;;;;;13.19;75.00;100598.69;5056918;28;20561;-82
2021/09/09 01:38:22;;;;;;;11.23;8.45;;;;;;;13.16;75.21;100594.31;5056877;28;20041;-82
2021/09/09 01:40:47;;;;;;;12.48;9.38;;;;;;;13.14;75.03;100595.22;5035590;28;20068;-82
2021/09/09 01:43:13;;;;;;;13.43;9.18;;;;;;;13.12;74.80;100597.03;5038552;28;20045;-82
2021/09/09 01:45:38;;;;;;;11.95;9.50;;;;;;;13.10;75.28;100602.38;5056285;28;20045;-82
2021/09/09 01:48:04;;;;;;;11.93;8.52;;;;;;;13.07;75.16;100604.16;5056998;28;20049;-82
2021/09/09 01:50:29;;;;;;;15.73;11.50;;;;;;;13.06;75.38;100597.13;5055526;28;20045;-82
2021/09/09 01:52:55;;;;;;;13.48;10.05;;;;;;;13.03;75.02;100597.19;5056119;28;20025;-82
2021/09/09 01:55:20;;;;;;;11.55;9.73;;;;;;;13.02;75.74;100606.00;5056346;28;20029;-82
2021/09/09 01:57:46;;;;;;;12.60;8.88;;;;;;;13.00;75.61;100600.75;5055945;28;20507;-82
2021/09/09 02:00:12;;;;;;;12.45;8.38;;;;;;;12.98;75.73;100605.19;5056242;28;20550;-82
2021/09/09 02:02:37;;;;;;;12.02;8.82;;;;;;;12.96;75.50;100609.63;5055779;28;20110;-82
2021/09/09 02:05:03;;;;;;;12.68;8.95;;;;;;;12.96;75.27;100608.75;5039258;28;20660;-83
2021/09/09 02:07:28;;;;;;;10.52;8.07;;;;;;;12.93;75.37;100601.72;5057614;28;20036;-82
2021/09/09 02:09:54;;;;;;;11.80;8.15;;;;;;;12.91;75.12;100604.38;5056715;28;20037;-83
2021/09/09 02:12:19;;;;;;;13.98;9.18;;;;;;;12.91;75.14;100603.50;5057289;28;20040;-82
2021/09/09 02:14:44;;;;;;;14.70;11.65;;;;;;;12.87;75.66;100597.41;5038964;28;20036;-83
2021/09/09 02:17:10;;;;;;;12.57;9.40;;;;;;;12.84;75.07;100601.88;5038532;28;20047;-82
2021/09/09 02:19:35;;;;;;;11.45;8.90;;;;;;;12.80;75.57;100595.72;5057157;28;20044;-83
2021/09/09 02:22:00;;;;;;;11.75;8.60;;;;;;;12.77;75.65;100600.22;5055886;28;20084;-82
2021/09/09 02:24:26;;;;;;;15.77;9.10;;;;;;;12.75;75.21;100592.28;5055724;28;20041;-82
2021/09/09 02:26:51;;;;;;;13.60;8.63;;;;;;;12.75;75.16;100586.09;5047757;28;20067;-82
2021/09/09 02:29:16;;;;;;;12.98;8.48;;;;;;;12.74;75.61;100589.66;5046376;28;20045;-82
2021/09/09 02:31:42;;;;;;;11.70;8.60;;;;;;;12.69;76.18;100585.28;5054844;28;20044;-82
2021/09/09 02:34:07;;;;;;;14.25;9.98;;;;;;;12.55;76.26;100583.72;5055033;28;20037;-82
2021/09/09 02:36:32;;;;;;;13.43;9.00;;;;;;;12.49;76.82;100584.69;5037959;28;20040;-82
2021/09/09 02:38:58;;;;;;;14.23;9.23;;;;;;;12.39;77.38;100585.69;5056272;28;20120;-82
2021/09/09 02:41:24;;;;;;;12.50;9.02;;;;;;;12.38;77.64;100586.59;5055820;28;20025;-82
2021/09/09 02:43:49;;;;;;;11.38;9.20;;;;;;;12.32;78.50;100590.19;5054988;28;20064;-82
2021/09/09 02:46:14;;;;;;;12.18;9.35;;;;;;;12.25;79.04;100578.81;5055828;28;20052;-83
2021/09/09 02:48:40;;;;;;;13.75;10.27;;;;;;;12.19;79.96;100581.53;5055873;28;20037;-82
2021/09/09 02:51:05;;;;;;;12.07;9.13;;;;;;;12.18;79.05;100573.59;5054782;28;20041;-82
2021/09/09 02:53:30;;;;;;;12.77;9.30;;;;;;;12.15;78.89;100577.16;5055461;28;20426;-83
2021/09/09 02:55:56;;;;;;;10.88;8.90;;;;;;;12.20;77.92;100577.97;5037926;28;20423;-83
2021/09/09 02:58:21;;;;;;;10.75;8.68;;;;;;;12.23;78.27;100572.66;5037543;28;20041;-82
2021/09/09 03:00:46;;;;;;;10.98;8.70;;;;;;;12.22;77.67;100570.91;5055541;28;20495;-82
2021/09/09 03:03:12;;;;;;;11.60;8.43;;;;;;;12.17;78.34;100571.88;5052737;28;20102;-82
2021/09/09 03:05:37;;;;;;;11.25;9.68;;;;;;;12.10;78.33;100571.03;5036063;28;20072;-82
2021/09/09 03:08:02;;;;;;;16.20;10.55;;;;;;;12.01;78.72;100579.09;5044838;28;20036;-82
2021/09/09 03:10:28;;;;;;;12.00;8.80;;;;;;;12.04;78.39;100573.78;5054075;28;20035;-82
2021/09/09 03:12:53;;;;;;;9.77;8.20;;;;;;;12.10;78.38;100573.69;5053923;28;20037;-82
2021/09/09 03:15:18;;;;;;;11.32;8.85;;;;;;;12.14;77.99;100569.25;5053987;28;20033;-82
2021/09/09 03:17:44;;;;;;;12.27;8.82;;;;;;;12.14;77.76;100562.19;5053481;28;20087;-82
2021/09/09 03:20:10;;;;;;;10.73;8.82;;;;;;;12.15;77.57;100565.72;5053273;28;20040;-82
2021/09/09 03:22:35;;;;;;;18.92;12.43;;;;;;;12.17;77.39;100562.16;5051733;28;20086;-82
2021/09/09 03:25:01;;;;;;;13.52;10.45;;;;;;;12.18;77.34;100555.09;5052791;28;20044;-82
2021/09/09 03:27:26;;;;;;;17.02;11.13;;;;;;;12.20;77.21;100554.16;5053453;28;20037;-83
2021/09/09 03:29:52;;;;;;;18.63;13.48;;;;;;;12.20;77.29;100558.59;5052818;28;20037;-82
2021/09/09 03:32:17;;;;;;;13.82;11.27;;;;;;;12.21;77.20;100555.94;5039671;28;20047;-82
2021/09/09 03:34:42;;;;;;;14.95;11.70;;;;;;;12.23;76.92;100562.06;5054838;28;20036;-82
2021/09/09 03:37:08;;;;;;;17.33;14.90;;;;;;;12.25;77.56;100562.06;5054546;28;20388;-83
2021/09/09 03:39:33;;;;;;;16.33;13.00;;;;;;;12.25;76.95;100549.69;5035586;28;20398;-82
2021/09/09 03:41:58;;;;;;;17.30;12.98;;;;;;;12.25;76.92;100549.69;5037252;28;20052;-83
2021/09/09 03:44:24;;;;;;;13.65;11.60;;;;;;;12.26;76.63;100543.53;5019057;28;20040;-82
2021/09/09 03:46:49;;;;;;;13.90;11.15;;;;;;;12.25;76.93;100543.53;5054300;28;20060;-82
2021/09/09 03:49:14;;;;;;;17.02;13.57;;;;;;;12.23;76.58;100537.38;5052369;28;20042;-83
2021/09/09 03:51:40;;;;;;;14.27;12.40;;;;;;;12.22;77.26;100536.50;5058755;28;20051;-83
2021/09/09 03:54:05;;;;;;;14.90;12.02;;;;;;;12.21;76.72;100540.06;5055387;28;20060;-82
2021/09/09 04:24:08;;;;;;;15.20;11.68;;;;;;;11.98;77.15;100519.19;5079969;22;20498;-81
2021/09/09 04:26:40;;;;;;;16.65;11.55;;;;;;;11.95;76.53;100521.88;5047274;28;20029;-81
2021/09/09 04:29:34;;;;;;;14.73;12.35;;;;;;;11.94;77.00;100519.22;5053942;28;20037;-81
2021/09/09 04:32:10;;;;;;;14.25;11.40;;;;;;;11.84;77.21;100516.69;5047796;28;20048;-81
2021/09/09 04:35:26;;;;;;;21.40;17.00;;;;;;;11.90;78.47;100518.41;5059364;28;20064;-81
2021/09/09 04:38:46;;;;;;;18.98;14.38;;;;;;;11.96;77.70;100509.50;5058251;28;20526;-81
2021/09/09 04:41:11;;;;;;;13.32;11.77;;;;;;;12.01;77.30;100520.91;5030357;28;20128;-80
2021/09/09 04:43:37;;;;;;;17.67;12.30;;;;;;;12.01;77.21;100518.25;5039689;28;20056;-80
2021/09/09 04:46:03;;;;;;;12.20;10.05;;;;;;;12.06;76.82;100519.09;5035785;28;20037;-80
2021/09/09 04:48:29;;;;;;;12.40;10.65;;;;;;;12.07;76.96;100521.69;5053326;28;20057;-81
2021/09/09 04:50:54;;;;;;;12.38;10.05;;;;;;;12.09;76.53;100512.88;5055432;28;20060;-81
2021/09/09 04:53:19;;;;;;;13.50;9.32;;;;;;;12.11;76.62;100504.03;5056341;28;20056;-82
2021/09/09 04:55:45;;;;;;;14.65;11.52;;;;;;;12.17;76.78;100508.38;5053989;28;20029;-81
2021/09/09 04:58:10;;;;;;;15.95;11.68;;;;;;;12.21;76.19;100505.66;5056163;28;20053;-81
2021/09/09 05:00:35;;;;;;;15.52;11.25;;;;;;;12.25;75.96;100512.66;5056398;28;20040;-81
2021/09/09 05:03:01;;;;;;;19.02;14.00;;;;;;;12.29;76.07;100508.22;5054889;28;20029;-81
2021/09/09 05:05:26;;;;;;;18.90;14.85;;;;;;;12.33;75.95;100507.25;5053848;28;20040;-81
2021/09/09 05:07:51;;;;;;;16.38;13.68;;;;;;;12.37;75.52;100497.53;5054154;28;20041;-81
2021/09/09 05:10:17;;;;;;;15.88;11.60;;;;;;;12.41;75.64;100496.56;5055784;28;20040;-81
2021/09/09 05:12:42;;;;;;;15.98;9.77;;;;;;;12.46;75.74;100497.38;5033443;28;20139;-81
2021/09/09 05:15:08;;;;;;;12.63;8.68;;;;;;;12.45;75.86;100498.28;5057330;28;20067;-81
2021/09/09 05:17:33;;;;;;;9.20;8.18;;;;;;;12.47;75.27;100497.38;5039457;28;20040;-81
2021/09/09 05:19:59;;;;;;;11.00;9.00;;;;;;;12.57;75.65;100492.78;5057000;28;20096;-81
2021/09/09 05:22:24;;;;;;;13.27;10.45;;;;;;;12.65;75.13;100500.63;5057311;28;20067;-81
2021/09/09 05:24:49;;;;;;;15.93;11.05;;;;;;;12.74;74.89;100491.69;5055945;28;20518;-81
2021/09/09 05:27:14;;;;;;;14.23;12.23;;;;;;;12.83;74.95;100489.75;5056212;28;20519;-81
2021/09/09 05:29:40;;;;;;;16.77;11.60;;;;;;;12.91;74.55;100492.25;5048576;28;20040;-81
2021/09/09 05:32:06;;;;;;;13.85;10.80;;;;;;;13.01;74.29;100485.91;5045272;28;20037;-81
2021/09/09 05:34:31;;;;;;;16.55;12.70;;;;;;;13.09;73.45;100489.31;5044582;28;20025;-81
2021/09/09 05:36:57;;;;;;;18.63;11.32;;;;;;;13.20;73.61;100482.94;5048801;28;20033;-81
2021/09/09 05:39:22;;;;;;;14.00;11.25;;;;;;;13.29;73.06;100488.13;5039820;28;20044;-81
2021/09/09 05:41:48;;;;;;;16.92;13.20;;;;;;;13.39;72.89;100484.41;5063596;28;20044;-81
2021/09/09 05:44:13;;;;;;;24.88;17.20;;;;;;;13.50;72.76;100487.72;5061641;28;20072;-81
2021/09/09 06:05:32;;;;;;;13.60;10.75;;;;;;;14.32;70.71;100480.75;4935793;28;20468;-81
2021/09/09 06:20:11;;;;;;;11.45;7.85;;;;;;;14.87;70.06;100480.34;5038128;28;20068;-80
2021/09/09 06:23:44;;;;;;;;;;;;;;;;;;;;;
2021/09/09 06:33:29;;;;;;;12.65;8.15;;;;;;;15.52;68.85;100465.41;5046331;28;20572;-81
2021/09/09 06:35:54;;;;;;;11.00;6.78;;;;;;;15.60;69.43;100471.38;5031843;28;20033;-81
2021/09/09 06:45:52;;;;;;;11.35;8.50;;;;;;;16.02;68.43;100464.91;4972845;28;20091;-81
2021/09/09 06:48:17;;;;;;;14.65;8.00;;;;;;;16.14;68.53;100460.09;5053276;28;20037;-80
2021/09/09 06:50:43;;;;;;;11.43;7.32;;;;;;;16.27;68.61;100459.69;5034602;28;20047;-80
2021/09/09 06:53:08;;;;;;;13.15;8.85;;;;;;;16.38;68.87;100453.13;5037194;28;20045;-81
2021/09/09 06:55:34;;;;;;;13.73;8.63;;;;;;;16.51;68.82;100452.75;5047463;28;20029;-81
2021/09/09 06:57:59;;;;;;;13.80;9.52;;;;;;;16.64;68.42;100457.63;5030965;28;20280;-80
2021/09/09 07:00:25;;;;;;;17.25;10.95;;;;;;;16.79;67.86;100452.72;5033506;28;20040;-81
2021/09/09 07:02:50;;;;;;;12.85;9.50;;;;;;;16.95;66.23;100451.31;5059094;28;20403;-81
2021/09/09 07:05:16;;;;;;;10.75;8.40;;;;;;;17.11;65.72;100454.34;5059259;28;20511;-81
2021/09/09 07:07:41;;;;;;;11.70;6.93;;;;;;;17.26;64.84;100455.59;5040546;28;20116;-81
2021/09/09 07:10:08;;;;;;;13.98;7.70;;;;;;;17.40;64.12;100450.66;5052540;28;20044;-80
2021/09/09 07:12:33;;;;;;;11.95;7.28;;;;;;;17.55;63.91;100448.34;5056139;28;20024;-81
2021/09/09 07:14:59;;;;;;;11.05;7.10;;;;;;;17.66;62.98;100446.19;5045905;28;20044;-81
2021/09/09 07:17:24;;;;;;;9.98;6.75;;;;;;;17.80;63.03;100446.56;5045971;28;20029;-81
2021/09/09 07:19:50;;;;;;;10.93;7.43;;;;;;;17.92;62.07;100442.53;5046025;28;20554;-81
2021/09/09 07:22:15;;;;;;;11.05;6.38;;;;;;;18.06;62.02;100445.56;5049594;28;20115;-81
2021/09/09 07:24:40;;;;;;;9.07;6.30;;;;;;;18.18;61.55;100441.53;5029814;28;20075;-81
2021/09/09 07:27:06;;;;;;;9.10;6.85;;;;;;;18.31;61.48;100440.16;5044014;28;20037;-81
2021/09/09 07:29:31;;;;;;;9.98;8.00;;;;;;;18.45;60.62;100436.91;5037624;28;20049;-81
2021/09/09 07:31:56;;;;;;;11.60;7.57;;;;;;;18.57;60.57;100443.56;5047579;28;20041;-80
2021/09/09 07:34:22;;;;;;;10.10;7.32;;;;;;;18.67;59.74;100447.59;5044208;28;20072;-81
2021/09/09 07:36:47;;;;;;;9.38;6.50;;;;;;;18.76;59.13;100444.59;5045406;28;20040;-80
2021/09/09 07:39:12;;;;;;;11.02;7.50;;;;;;;18.87;59.01;100437.94;5056149;28;20841;-81
2021/09/09 07:41:38;;;;;;;10.15;6.85;;;;;;;18.97;58.68;100440.16;5053132;28;20041;-81
2021/09/09 07:44:04;;;;;;;8.18;5.43;;;;;;;19.12;57.50;100443.94;5029859;28;20072;-81
2021/09/09 07:46:30;;;;;;;11.95;7.57;;;;;;;19.23;56.83;100443.47;5056333;28;20029;-81
2021/09/09 07:48:56;;;;;;;16.17;10.27;;;;;;;19.37;56.98;100440.22;5053559;28;20128;-81
2021/09/09 07:51:22;;;;;;;10.52;7.78;;;;;;;19.48;57.13;100443.28;5044275;28;20048;-81
2021/09/09 07:53:48;;;;;;;9.98;7.68;;;;;;;19.62;56.71;100440.00;5047238;28;20047;-82
2021/09/09 07:56:14;;;;;;;11.20;7.95;;;;;;;19.75;56.67;100443.03;5025898;28;20048;-81
2021/09/09 07:58:39;;;;;;;9.52;7.25;;;;;;;19.85;55.94;100441.66;5045066;28;20391;-81
2021/09/09 08:01:04;;;;;;;9.80;7.75;;;;;;;19.91;56.00;100449.41;5048728;28;20037;-81
2021/09/09 08:03:30;;;;;;;12.32;7.75;;;;;;;19.99;55.72;100443.69;5047587;28;20044;-82
2021/09/09 08:05:56;;;;;;;12.68;8.63;;;;;;;20.09;55.37;100447.69;5046820;28;20602;-81
2021/09/09 08:08:21;;;;;;;10.68;8.60;;;;;;;20.21;55.15;100443.56;5048053;28;20481;-81
2021/09/09 08:10:47;;;;;;;11.13;6.82;;;;;;;20.27;54.37;100445.94;5063710;28;20035;-81
2021/09/09 08:13:12;;;;;;;8.25;7.05;;;;;;;20.39;54.44;100450.72;5054794;28;20029;-81
2021/09/09 08:15:38;;;;;;;10.02;6.60;;;;;;;20.49;55.02;100443.13;5048408;28;20034;-81
2021/09/09 08:18:04;;;;;;;9.90;7.82;;;;;;;20.62;54.05;100443.41;5051191;28;20033;-80
2021/09/09 08:20:29;;;;;;;10.38;6.85;;;;;;;20.75;53.34;100441.84;5062418;28;20422;-81
2021/09/09 08:22:54;;;;;;;8.68;7.18;;;;;;;20.87;53.35;100449.28;5050287;28;20120;-81
2021/09/09 08:25:20;;;;;;;9.48;5.70;;;;;;;20.95;52.85;100444.41;5054950;28;20456;-80
2021/09/09 08:27:45;;;;;;;8.80;5.70;;;;;;;21.01;51.84;100448.56;5037550;28;20474;-81
2021/09/09 08:30:11;;;;;;;7.03;4.60;;;;;;;20.96;51.94;100448.84;5052158;28;20103;-81
2021/09/09 08:32:36;;;;;;;7.75;4.75;;;;;;;20.95;50.73;100455.13;5048779;28;20080;-81
2021/09/09 08:35:02;;;;;;;12.57;7.47;;;;;;;21.05;51.51;100450.19;5028879;28;20045;-81
2021/09/09 08:37:27;;;;;;;6.55;4.82;;;;;;;21.16;50.47;100455.00;5053507;28;20047;-81
2021/09/09 08:39:53;;;;;;;7.85;4.85;;;;;;;21.23;50.48;100451.91;5030364;28;20087;-81
2021/09/09 08:42:19;;;;;;;7.85;4.40;;;;;;;21.29;50.44;100453.41;5048067;28;20069;-81
2021/09/09 08:44:45;;;;;;;13.95;4.28;;;;;;;21.42;49.74;100449.16;5049538;28;20029;-81
2021/09/09 08:47:11;;;;;;;8.20;5.70;;;;;;;21.53;50.94;100445.06;5031319;28;20029;-81
2021/09/09 08:49:37;;;;;;;10.02;6.20;;;;;;;21.63;50.46;100448.97;5037772;28;20039;-81
2021/09/09 08:52:04;;;;;;;7.57;4.85;;;;;;;21.71;49.38;100456.63;5050848;28;20448;-81
2021/09/09 08:54:30;;;;;;;8.02;5.78;;;;;;;21.76;50.14;100450.06;5062582;28;20056;-81
2021/09/09 08:56:56;;;;;;;9.57;5.00;;;;;;;21.81;49.55;100452.50;5048949;28;20556;-81
2021/09/09 08:59:21;;;;;;;8.23;5.53;;;;;;;21.91;50.03;100452.88;5032009;28;20029;-81
2021/09/09 09:02:01;;;;;;;7.53;5.70;;;;;;;22.02;48.25;100450.47;5048770;28;20439;-81
2021/09/09 09:04:26;;;;;;;9.90;6.97;;;;;;;;;;5049566;28;20021;-81
2021/09/09 09:06:51;;;;;;;9.00;6.43;;;;;;;22.22;48.78;100450.25;5046992;28;20545;-81
2021/09/09 09:09:20;;;;;;;9.80;7.07;;;;;;;22.32;48.70;100445.22;5048377;28;20044;-81
2021/09/09 09:11:49;;;;;;;10.40;7.45;;;;;;;22.49;49.34;100444.28;5036931;28;20037;-81
2021/09/09 09:14:19;;;;;;;9.73;8.50;;;;;;;22.60;48.02;100447.22;5049247;28;20044;-81
2021/09/09 09:16:51;;;;;;;7.68;5.95;;;;;;;22.67;48.55;100445.91;5049403;28;20048;-81
2021/09/09 09:19:20;;;;;;;9.30;6.50;;;;;;;22.75;48.31;100443.63;5046266;28;20399;-81
2021/09/09 09:21:49;;;;;;;12.43;8.13;;;;;;;22.81;47.98;100441.53;5047900;28;20494;-81
2021/09/09 09:24:19;;;;;;;10.27;7.45;;;;;;;22.89;47.76;100440.13;5037947;28;20053;-81
2021/09/09 09:27:07;;;;;;;8.55;6.95;;;;;;;22.99;47.50;100448.56;5046358;28;20037;-81
2021/09/09 09:29:33;;;;;;;13.85;10.52;;;;;;;23.00;47.41;100436.84;5035992;28;20729;-81
2021/09/09 09:32:14;;;;;;;12.23;9.43;;;;;;;23.09;46.79;100430.91;5027246;28;20124;-81
2021/09/09 09:34:41;;;;;;;9.50;5.80;;;;;;;23.19;46.37;100432.09;5045872;28;20029;-81
2021/09/09 09:37:07;;;;;;;11.32;7.65;;;;;;;23.26;47.12;100427.19;5047010;28;20175;-81
2021/09/09 09:39:34;;;;;;;8.98;7.65;;;;;;;23.37;47.12;100426.53;5047446;28;20064;-81
2021/09/09 09:42:04;;;;;;;9.95;7.00;;;;;;;23.46;46.75;100428.69;5046653;28;20037;-81
2021/09/09 09:44:41;;;;;;;23.50;9.73;;;;;;;23.48;44.71;100425.91;5048279;28;20030;-81
2021/09/09 09:47:11;;;;;;;11.77;7.25;;;;;;;23.53;45.89;100429.19;5047197;28;20626;-81
2021/09/09 09:49:39;;;;;;;6.80;5.65;;;;;;;23.65;45.63;100435.63;5050940;28;20033;-81
2021/09/09 09:52:07;;;;;;;7.68;4.55;;;;;;;23.70;45.47;100423.59;5047648;28;20048;-79
2021/09/09 09:54:33;;;;;;;12.25;8.77;;;;;;;23.80;45.68;100426.63;5025927;28;20120;-78
2021/09/09 09:56:59;;;;;;;10.55;7.32;;;;;;;23.91;44.88;100421.41;5047116;28;20045;-79
2021/09/09 09:59:25;;;;;;;11.55;6.60;;;;;;;24.01;44.94;100419.88;5044174;28;20033;-78
2021/09/09 10:01:51;;;;;;;7.65;4.57;;;;;;;24.08;43.79;100419.47;5058895;28;20044;-78
2021/09/09 10:04:21;;;;;;;9.10;7.00;;;;;;;24.16;43.99;100415.31;5052899;28;20100;-78
2021/09/09 10:06:48;;;;;;;9.43;5.60;;;;;;;24.25;44.06;100419.25;5057930;28;20403;-78
2021/09/09 10:09:14;;;;;;;10.25;7.03;;;;;;;24.33;44.19;100413.34;5031580;28;20520;-78
2021/09/09 10:11:40;;;;;;;8.13;6.20;;;;;;;24.42;43.75;100419.03;5028031;28;20068;-78
2021/09/09 10:14:07;;;;;;;9.00;6.13;;;;;;;24.45;43.28;100416.16;5029020;28;20680;-79
2021/09/09 10:16:38;;;;;;;7.68;6.43;;;;;;;24.53;42.59;100410.25;5053087;28;20032;-79
2021/09/09 10:19:04;;;;;;;8.85;7.95;;;;;;;24.62;43.40;100408.75;5055452;28;20032;-78
2021/09/09 10:21:39;;;;;;;7.97;6.82;;;;;;;24.68;42.23;100411.03;5044329;28;20473;-79
2021/09/09 10:24:08;;;;;;;10.70;7.35;;;;;;;24.79;42.25;100404.94;5047708;28;20047;-78
2021/09/09 10:26:34;;;;;;;13.55;10.70;;;;;;;24.85;42.08;100405.38;5051410;28;20033;-79
2021/09/09 10:28:59;;;;;;;10.07;7.82;;;;;;;24.93;42.44;100407.56;5029591;28;20044;-78
2021/09/09 10:31:37;;;;;;;16.95;13.07;;;;;;;25.03;42.46;100402.41;5048928;28;20041;-78
2021/09/09 10:34:20;;;;;;;11.65;8.23;;;;;;;25.18;42.67;100401.41;5047775;28;20086;-79
2021/09/09 10:36:46;;;;;;;11.13;7.97;;;;;;;25.28;41.79;100397.09;5030919;28;20376;-79
2021/09/09 10:39:20;;;;;;;9.75;6.68;;;;;;;25.36;40.66;100400.09;5048183;28;20041;-79
2021/09/09 10:41:46;;;;;;;8.70;6.13;;;;;;;25.39;40.53;100392.75;5049204;28;20102;-79
2021/09/09 10:44:11;;;;;;;10.95;5.95;;;;;;;25.43;41.04;100403.22;5048861;28;20068;-79
2021/09/09 10:46:41;;;;;;;8.65;6.10;;;;;;;25.52;40.78;100393.63;5049553;28;20025;-79
2021/09/09 10:49:12;;;;;;;8.60;5.32;;;;;;;25.49;40.38;100397.41;5054262;28;20062;-79
2021/09/09 10:51:38;;;;;;;7.43;5.03;;;;;;;25.55;40.56;100396.13;5045296;28;20060;-79
2021/09/09 10:54:03;;;;;;;7.38;5.90;;;;;;;25.66;40.65;100395.34;5043865;28;20040;-79
2021/09/09 10:56:36;;;;;;;8.95;4.45;;;;;;;25.70;39.30;100386.91;5054601;28;20124;-79
2021/09/09 10:59:19;;;;;;;10.70;5.80;;;;;;;25.74;39.37;100382.16;5050207;28;20410;-79
2021/09/09 11:01:46;;;;;;;10.45;7.57;;;;;;;25.86;39.98;100383.13;5030817;28;20133;-79
2021/09/09 11:04:28;;;;;;;7.85;5.60;;;;;;;26.00;39.52;100386.56;5047298;28;20042;-79
2021/09/09 11:06:55;;;;;;;9.52;7.40;;;;;;;26.13;39.76;100389.22;5047831;28;20521;-79
2021/09/09 11:09:21;;;;;;;28.98;14.25;;;;;;;26.22;40.71;100382.25;5046855;28;20048;-78
2021/09/09 11:12:04;;;;;;;10.07;7.40;;;;;;;26.22;38.76;100376.84;5049429;28;20034;-79
2021/09/09 11:14:32;;;;;;;7.78;5.93;;;;;;;26.24;38.50;100375.75;5045297;28;20071;-78
2021/09/09 11:16:59;;;;;;;7.38;4.90;;;;;;;26.22;38.31;100374.16;5052778;28;20036;-78
2021/09/09 11:19:24;;;;;;;11.10;7.28;;;;;;;26.26;39.66;100372.09;5053500;28;20033;-78
2021/09/09 11:21:51;;;;;;;9.20;6.13;;;;;;;26.36;39.08;100368.59;5044678;28;20083;-78
2021/09/09 11:24:18;;;;;;;7.57;5.93;;;;;;;26.40;38.56;100370.06;5049174;28;20052;-78
2021/09/09 11:26:46;;;;;;;11.35;5.95;;;;;;;26.36;38.09;100368.59;5064352;28;20075;-78
2021/09/09 11:29:16;;;;;;;8.35;4.57;;;;;;;26.54;38.75;100360.97;5032611;28;20025;-76
2021/09/09 11:31:49;;;;;;;8.48;5.18;;;;;;;26.82;37.92;100364.25;5030379;28;20025;-77
2021/09/09 11:34:21;;;;;;;10.65;6.80;;;;;;;27.17;37.90;100360.66;5048158;28;20037;-77
2021/09/09 11:36:47;;;;;;;8.70;5.68;;;;;;;27.37;37.13;100360.00;5046480;28;20037;-78
2021/09/09 11:39:16;;;;;;;5.05;4.25;;;;;;;27.60;37.09;100354.59;5047727;28;20029;-78
2021/09/09 11:41:42;;;;;;;6.15;5.07;;;;;;;27.75;36.08;100353.34;5044454;28;20040;-78
2021/09/09 11:44:10;;;;;;;9.50;5.55;;;;;;;28.00;36.25;100354.09;5045286;28;20037;-78
2021/09/09 11:46:49;;;;;;;7.75;5.07;;;;;;;28.18;35.17;100356.16;5044397;28;20088;-77
2021/09/09 11:49:16;;;;;;;8.10;4.43;;;;;;;28.27;34.33;100357.25;5039870;28;20041;-77
2021/09/09 11:51:44;;;;;;;6.20;4.28;;;;;;;28.33;33.30;100343.16;5041265;28;20085;-76
2021/09/09 11:54:17;;;;;;;6.18;4.70;;;;;;;28.45;33.59;100346.72;5056164;28;20051;-78
2021/09/09 11:56:42;;;;;;;8.30;5.80;;;;;;;28.75;33.78;100343.28;5056358;28;20032;-77
2021/09/09 11:59:18;;;;;;;8.80;6.68;;;;;;;28.98;33.67;100337.72;5049010;28;20041;-77
2021/09/09 12:01:47;;;;;;;6.00;4.22;;;;;;;29.23;32.80;100339.19;5043626;28;20037;-77
2021/09/09 12:04:13;;;;;;;7.85;3.85;;;;;;;29.09;31.89;100331.41;5050503;28;20112;-78
2021/09/09 12:06:39;;;;;;;10.85;5.40;;;;;;;29.12;32.48;100323.81;5041224;28;20106;-78
2021/09/09 12:09:04;;;;;;;6.70;5.35;;;;;;;29.27;32.99;100327.91;5034351;28;20499;-79
2021/09/09 12:11:33;;;;;;;6.63;4.68;;;;;;;29.55;32.51;100330.91;5054953;28;20414;-79
2021/09/09 12:14:14;;;;;;;7.15;5.03;;;;;;;29.90;31.64;100325.06;5030336;28;20045;-79
2021/09/09 12:16:39;;;;;;;8.43;5.00;;;;;;;30.21;31.70;100330.44;5050352;28;20118;-79
2021/09/09 12:19:10;;;;;;;12.10;5.50;;;;;;;30.21;31.72;100324.97;5051790;28;20487;-79
2021/09/09 12:21:36;;;;;;;7.53;4.13;;;;;;;30.25;31.61;100328.31;5050952;28;20036;-79
2021/09/09 12:24:10;;;;;;;6.28;4.65;;;;;;;30.57;30.27;100323.44;5048467;28;20092;-78
2021/09/09 12:26:37;;;;;;;7.13;4.88;;;;;;;30.75;29.84;100317.25;5045284;28;20041;-78
2021/09/09 12:29:13;;;;;;;10.57;6.68;;;;;;;30.83;30.03;100317.44;5044600;28;20071;-79
2021/09/09 12:31:39;;;;;;;7.90;5.68;;;;;;;31.06;30.04;100317.13;5042154;28;20172;-79
2021/09/09 12:34:10;;;;;;;6.57;4.47;;;;;;;31.46;29.89;100302.38;5043452;28;20485;-78